Time;durP1;ratioP1;P1;durP2;ratioP2;P2;SDS_P1;SDS_P2;PMS_P1;PMS_P2;Temp;Humidity;BMP_temperature;BMP_pressure;BME280_temperature;BME280_humidity;BME280_pressure;Samples;Min_cycle;Max_cycle;Signal;HPM_P1;HPM_P2
2022/03/12 00:00:50;;;;;;;24.70;13.80;;;18.70;57.10;;;;;;5019921;28;20168;-60
2022/03/12 00:03:16;;;;;;;21.92;13.15;;;18.70;57.20;;;;;;5019496;28;20040;-60
2022/03/12 00:05:52;;;;;;;20.63;12.52;;;18.70;57.10;;;;;;5028002;28;20029;-60
2022/03/12 00:08:20;;;;;;;20.88;12.43;;;18.60;57.00;;;;;;5015537;28;20561;-60
2022/03/12 00:10:48;;;;;;;22.05;12.57;;;18.60;57.00;;;;;;5023626;28;20171;-60
2022/03/12 00:13:13;;;;;;;20.67;12.65;;;18.60;56.90;;;;;;5019185;28;20029;-60
2022/03/12 00:15:39;;;;;;;22.33;12.65;;;18.60;57.00;;;;;;5019560;28;20525;-60
2022/03/12 00:18:06;;;;;;;20.55;12.20;;;18.60;56.70;;;;;;5019136;28;20754;-60
2022/03/12 00:20:34;;;;;;;21.30;11.82;;;18.50;56.60;;;;;;5018532;28;20029;-61
2022/03/12 00:23:00;;;;;;;20.65;11.63;;;18.50;56.70;;;;;;5014253;28;20029;-60
2022/03/12 00:25:26;;;;;;;21.25;11.93;;;18.50;56.70;;;;;;5026133;28;20030;-60
2022/03/12 00:27:52;;;;;;;19.02;11.45;;;18.50;56.60;;;;;;5022566;28;20049;-60
2022/03/12 00:30:23;;;;;;;20.27;11.70;;;18.50;56.60;;;;;;5025878;28;20036;-60
2022/03/12 00:32:50;;;;;;;18.73;10.75;;;18.50;56.60;;;;;;5019098;28;20021;-60
2022/03/12 00:35:16;;;;;;;18.02;10.93;;;18.40;56.60;;;;;;5015079;28;20037;-60
2022/03/12 00:37:41;;;;;;;18.33;10.55;;;18.40;56.60;;;;;;5027202;28;20540;-60
2022/03/12 00:40:07;;;;;;;19.52;10.70;;;18.40;56.50;;;;;;5018976;28;20058;-60
2022/03/12 00:42:33;;;;;;;18.88;10.55;;;18.40;56.50;;;;;;5018884;28;20029;-61
2022/03/12 00:44:59;;;;;;;19.73;10.27;;;18.40;56.50;;;;;;5018850;28;20045;-60
2022/03/12 00:47:26;;;;;;;16.90;9.70;;;18.40;56.50;;;;;;5027684;28;20025;-60
2022/03/12 00:49:52;;;;;;;16.23;9.90;;;18.40;56.50;;;;;;5014313;28;20387;-60
2022/03/12 00:52:18;;;;;;;18.23;10.00;;;18.40;56.50;;;;;;5018171;28;20030;-60
2022/03/12 00:54:44;;;;;;;18.05;10.13;;;18.40;56.50;;;;;;5018754;28;20028;-60
2022/03/12 00:57:11;;;;;;;17.48;10.30;;;18.30;56.40;;;;;;5019126;28;20105;-60
2022/03/12 00:59:40;;;;;;;17.58;9.82;;;18.30;56.40;;;;;;5017488;28;20026;-60
2022/03/12 01:02:07;;;;;;;16.98;10.05;;;18.30;56.40;;;;;;5014013;28;20036;-60
2022/03/12 01:04:33;;;;;;;17.40;9.65;;;18.30;56.60;;;;;;5029707;28;20482;-61
2022/03/12 01:06:59;;;;;;;17.10;9.70;;;18.30;56.50;;;;;;5019497;28;20073;-60
2022/03/12 01:09:24;;;;;;;18.60;10.40;;;18.20;56.60;;;;;;5018290;28;20478;-60
2022/03/12 01:11:50;;;;;;;16.50;9.15;;;18.20;57.50;;;;;;5018338;28;20344;-60
2022/03/12 01:14:16;;;;;;;17.02;9.20;;;18.20;56.60;;;;;;5013826;28;20033;-60
2022/03/12 01:16:41;;;;;;;17.45;9.32;;;18.20;56.60;;;;;;5015140;28;20030;-60
2022/03/12 01:19:08;;;;;;;16.30;8.82;;;18.20;56.50;;;;;;5018333;28;20108;-60
2022/03/12 01:21:34;;;;;;;17.98;9.43;;;18.20;56.60;;;;;;5023033;28;20029;-60
2022/03/12 01:23:59;;;;;;;16.83;8.98;;;18.20;56.60;;;;;;5027374;28;20021;-60
2022/03/12 01:26:25;;;;;;;16.25;9.35;;;18.10;56.70;;;;;;5015593;28;20068;-60
2022/03/12 01:28:51;;;;;;;15.73;8.82;;;18.10;56.70;;;;;;5013788;28;20026;-60
2022/03/12 01:31:16;;;;;;;15.65;8.93;;;18.10;56.70;;;;;;5026938;28;20028;-60
2022/03/12 01:33:42;;;;;;;17.33;8.88;;;18.10;56.70;;;;;;5033450;28;20037;-60
2022/03/12 01:36:08;;;;;;;16.45;8.93;;;18.10;56.70;;;;;;5030667;28;20018;-60
2022/03/12 01:38:54;;;;;;;15.65;8.60;;;18.00;56.60;;;;;;5038379;28;20032;-61
2022/03/12 01:41:29;;;;;;;15.63;8.40;;;18.00;56.80;;;;;;5013549;28;20029;-60
2022/03/12 01:43:54;;;;;;;;;;;18.00;56.80;;;;;;5029584;28;20034;-61
2022/03/12 01:46:34;;;;;;;14.98;8.05;;;18.00;56.80;;;;;;5016938;28;20293;-60
2022/03/12 01:49:04;;;;;;;16.42;8.25;;;18.00;56.80;;;;;;5020369;28;20024;-60
2022/03/12 01:51:29;;;;;;;14.63;8.02;;;18.00;56.80;;;;;;5053749;28;20038;-60
2022/03/12 01:53:55;;;;;;;16.45;8.50;;;18.00;56.80;;;;;;5017530;28;20184;-60
2022/03/12 01:56:25;;;;;;;13.43;7.93;;;17.90;56.80;;;;;;5029029;28;20021;-60
2022/03/12 01:58:50;;;;;;;15.65;8.27;;;18.00;56.90;;;;;;5011818;28;20033;-60
2022/03/12 02:01:18;;;;;;;14.25;7.53;;;17.90;56.80;;;;;;5017309;28;20029;-60
2022/03/12 02:03:46;;;;;;;14.55;7.07;;;17.90;56.80;;;;;;5017178;28;20414;-60
2022/03/12 02:06:15;;;;;;;13.57;7.72;;;17.90;56.80;;;;;;5017353;28;20042;-60
2022/03/12 02:08:41;;;;;;;14.07;8.13;;;17.90;56.80;;;;;;5020931;28;20029;-60
2022/03/12 02:11:07;;;;;;;13.88;7.40;;;17.90;56.90;;;;;;5020058;28;20021;-60
2022/03/12 02:13:33;;;;;;;14.57;7.57;;;17.90;56.90;;;;;;5015137;28;20076;-60
2022/03/12 02:16:06;;;;;;;14.25;7.00;;;17.80;56.80;;;;;;5017191;28;20029;-60
2022/03/12 02:18:31;;;;;;;13.25;7.13;;;17.80;56.80;;;;;;5016965;28;20038;-61
2022/03/12 02:20:57;;;;;;;14.02;7.25;;;17.80;56.80;;;;;;5017335;28;20024;-60
2022/03/12 02:23:23;;;;;;;14.70;7.50;;;17.80;56.80;;;;;;5014481;28;20051;-61
2022/03/12 02:25:49;;;;;;;14.05;7.20;;;17.80;56.90;;;;;;5012951;28;20545;-60
2022/03/12 02:28:17;;;;;;;14.48;7.20;;;17.80;56.90;;;;;;5014565;28;20038;-60
2022/03/12 02:30:48;;;;;;;14.82;6.78;;;17.80;56.80;;;;;;5017039;28;20045;-60
2022/03/12 02:33:14;;;;;;;14.02;7.47;;;17.80;56.80;;;;;;5015542;28;20030;-61
2022/03/12 02:35:42;;;;;;;13.30;6.65;;;17.70;56.80;;;;;;5016591;28;20073;-60
2022/03/12 02:38:08;;;;;;;13.07;6.20;;;17.70;56.80;;;;;;5011266;28;20497;-60
2022/03/12 02:40:33;;;;;;;13.75;6.30;;;17.70;56.80;;;;;;5014604;28;20132;-61
2022/03/12 02:43:00;;;;;;;12.35;6.50;;;17.70;56.80;;;;;;5024634;28;20053;-60
2022/03/12 02:45:28;;;;;;;13.73;6.85;;;17.70;56.80;;;;;;5022497;28;20541;-60
2022/03/12 02:47:55;;;;;;;12.38;6.30;;;17.70;56.90;;;;;;5016393;28;20032;-60
2022/03/12 02:50:21;;;;;;;14.07;7.07;;;17.70;56.90;;;;;;5013636;28;20146;-60
2022/03/12 02:52:46;;;;;;;12.23;6.15;;;17.70;56.90;;;;;;5014222;28;20030;-60
2022/03/12 02:55:21;;;;;;;13.13;5.97;;;17.70;56.80;;;;;;5021319;28;20029;-61
2022/03/12 02:57:48;;;;;;;13.43;6.18;;;17.60;56.80;;;;;;5021070;28;20036;-60
2022/03/12 03:00:16;;;;;;;12.82;5.80;;;17.60;56.80;;;;;;5023067;28;20034;-60
2022/03/12 03:02:41;;;;;;;10.77;5.20;;;17.60;56.80;;;;;;5019639;28;20076;-60
2022/03/12 03:05:16;;;;;;;11.48;5.70;;;17.60;56.80;;;;;;5032083;28;20061;-60
2022/03/12 03:07:45;;;;;;;11.63;5.80;;;17.60;56.80;;;;;;5029587;28;20080;-60
2022/03/12 03:10:20;;;;;;;12.18;5.75;;;17.60;56.70;;;;;;5032417;28;20045;-60
2022/03/12 03:12:45;;;;;;;;;;;17.60;56.80;;;;;;5022791;28;20026;-60
2022/03/12 03:15:14;;;;;;;11.98;5.30;;;17.60;56.70;;;;;;5022084;28;19914;-60
2022/03/12 03:17:40;;;;;;;11.85;5.80;;;17.60;56.70;;;;;;5019678;28;20032;-60
2022/03/12 03:20:06;;;;;;;10.15;5.43;;;17.50;56.70;;;;;;5018258;28;20029;-60
2022/03/12 03:22:32;;;;;;;11.82;5.32;;;17.50;56.70;;;;;;5018489;28;20037;-60
2022/03/12 03:24:57;;;;;;;11.02;5.30;;;17.50;56.70;;;;;;5020379;28;20034;-60
2022/03/12 03:27:23;;;;;;;11.45;5.63;;;17.50;56.70;;;;;;5020424;28;20026;-60
2022/03/12 03:29:49;;;;;;;11.30;5.32;;;17.50;56.70;;;;;;5019646;28;20036;-60
2022/03/12 03:32:14;;;;;;;10.20;5.18;;;17.50;56.70;;;;;;5031160;28;20029;-60
2022/03/12 03:34:41;;;;;;;10.50;4.85;;;17.50;56.80;;;;;;5017171;28;20041;-60
2022/03/12 03:37:08;;;;;;;10.60;5.35;;;17.50;56.80;;;;;;5030378;28;20044;-60
2022/03/12 03:39:34;;;;;;;10.90;5.15;;;17.50;57.80;;;;;;5024419;28;20026;-60
2022/03/12 03:41:59;;;;;;;11.30;5.13;;;17.40;56.70;;;;;;5020060;28;20041;-60
2022/03/12 03:44:28;;;;;;;10.80;5.10;;;17.40;56.80;;;;;;5017389;28;20037;-60
2022/03/12 03:46:55;;;;;;;10.05;5.10;;;17.40;56.80;;;;;;5015096;28;20042;-60
2022/03/12 03:49:20;;;;;;;10.90;5.07;;;17.40;56.80;;;;;;5018320;28;20499;-60
2022/03/12 03:51:47;;;;;;;9.27;4.93;;;17.40;56.80;;;;;;5026248;28;20059;-60
2022/03/12 03:54:15;;;;;;;11.10;4.65;;;17.40;56.90;;;;;;5027181;28;20030;-60
2022/03/12 03:56:41;;;;;;;11.43;4.55;;;17.40;57.00;;;;;;5019170;28;20099;-60
2022/03/12 03:59:06;;;;;;;10.63;5.43;;;17.30;57.00;;;;;;5014990;28;20033;-60
2022/03/12 04:01:32;;;;;;;11.82;4.68;;;17.30;57.00;;;;;;5049049;28;20037;-60
2022/03/12 04:03:58;;;;;;;10.70;4.75;;;17.30;57.10;;;;;;5021376;28;20021;-60
2022/03/12 04:06:25;;;;;;;11.02;4.70;;;17.30;57.20;;;;;;5025689;28;20046;-60
2022/03/12 04:08:51;;;;;;;8.73;4.55;;;17.30;57.40;;;;;;5019532;28;20092;-60
2022/03/12 04:11:21;;;;;;;9.68;4.55;;;17.30;57.30;;;;;;5015767;28;20379;-60
2022/03/12 04:13:47;;;;;;;10.20;4.63;;;17.30;57.30;;;;;;5015527;28;20085;-60
2022/03/12 04:16:16;;;;;;;9.88;4.30;;;17.30;57.40;;;;;;5018740;28;20112;-60
2022/03/12 04:18:46;;;;;;;9.40;4.32;;;17.30;57.40;;;;;;5019539;28;20553;-60
2022/03/12 04:21:16;;;;;;;9.75;4.50;;;17.30;57.30;;;;;;5021708;28;20108;-61
2022/03/12 04:23:42;;;;;;;8.75;3.92;;;17.30;57.60;;;;;;5030681;28;20057;-60
2022/03/12 04:26:09;;;;;;;8.00;3.85;;;17.20;57.50;;;;;;5014520;28;20042;-60
2022/03/12 04:28:35;;;;;;;9.65;3.92;;;17.20;57.50;;;;;;5016491;28;20030;-60
2022/03/12 04:31:02;;;;;;;7.80;3.47;;;17.20;57.50;;;;;;5019250;28;20029;-60
2022/03/12 04:33:29;;;;;;;9.57;4.25;;;17.20;57.60;;;;;;5020973;28;20030;-60
2022/03/12 04:35:54;;;;;;;8.80;4.07;;;17.20;57.60;;;;;;5019136;28;20072;-60
2022/03/12 04:38:20;;;;;;;9.80;4.30;;;17.20;57.60;;;;;;5024893;28;20053;-60
2022/03/12 04:40:46;;;;;;;9.07;3.90;;;17.20;57.50;;;;;;5014814;28;20054;-60
2022/03/12 04:43:12;;;;;;;9.32;4.18;;;17.20;57.90;;;;;;5018650;28;20491;-61
2022/03/12 04:45:38;;;;;;;8.48;3.70;;;17.10;57.90;;;;;;5018841;28;20095;-60
2022/03/12 04:48:04;;;;;;;8.07;3.63;;;17.10;57.80;;;;;;5018874;28;20014;-60
2022/03/12 04:50:30;;;;;;;8.70;3.55;;;17.10;57.80;;;;;;5028048;28;20486;-60
2022/03/12 04:53:00;;;;;;;9.60;4.35;;;17.10;57.90;;;;;;5021030;28;20068;-60
2022/03/12 04:55:28;;;;;;;8.73;3.80;;;17.10;58.00;;;;;;5015814;28;20057;-60
2022/03/12 04:57:54;;;;;;;9.30;4.05;;;17.10;57.90;;;;;;5016841;28;20404;-60
2022/03/12 05:00:25;;;;;;;8.73;3.78;;;17.10;57.80;;;;;;5019843;28;20038;-60
2022/03/12 05:02:54;;;;;;;7.43;3.20;;;17.10;58.00;;;;;;5029182;28;20025;-60
2022/03/12 05:05:19;;;;;;;9.00;3.60;;;17.10;57.90;;;;;;5015052;28;20132;-60
2022/03/12 05:07:45;;;;;;;7.57;3.45;;;17.10;57.90;;;;;;5029149;28;20025;-60
2022/03/12 05:10:17;;;;;;;8.25;3.50;;;17.00;57.70;;;;;;5018707;28;20345;-60
2022/03/12 05:12:43;;;;;;;8.63;3.63;;;17.00;57.70;;;;;;5016961;28;20014;-60
2022/03/12 05:15:11;;;;;;;8.45;3.33;;;17.00;57.80;;;;;;5017485;28;20028;-60
2022/03/12 05:17:43;;;;;;;7.82;3.60;;;17.00;58.00;;;;;;5019165;28;20390;-60
2022/03/12 05:20:10;;;;;;;8.75;3.70;;;17.00;57.80;;;;;;5013647;28;20429;-60
2022/03/12 05:22:35;;;;;;;7.32;3.50;;;17.00;58.20;;;;;;5015625;28;20030;-60
2022/03/12 05:25:01;;;;;;;7.85;3.47;;;17.00;58.10;;;;;;5018098;28;20037;-60
2022/03/12 05:27:27;;;;;;;10.07;3.47;;;17.00;58.00;;;;;;5017196;28;20037;-60
2022/03/12 05:29:54;;;;;;;8.00;3.50;;;17.00;58.00;;;;;;5028441;28;20053;-61
2022/03/12 05:32:20;;;;;;;8.07;3.25;;;16.90;58.10;;;;;;5014811;28;20034;-60
2022/03/12 05:34:45;;;;;;;9.60;3.50;;;16.90;58.00;;;;;;5026754;28;20033;-60
2022/03/12 05:37:11;;;;;;;8.85;3.20;;;16.90;58.00;;;;;;5018205;28;20038;-60
2022/03/12 05:39:37;;;;;;;6.80;3.17;;;16.90;57.90;;;;;;5017676;28;20483;-60
2022/03/12 05:42:06;;;;;;;8.27;3.22;;;16.90;58.20;;;;;;5016386;28;20036;-60
2022/03/12 05:44:34;;;;;;;7.88;2.95;;;16.90;57.90;;;;;;5025914;28;20167;-61
2022/03/12 05:47:03;;;;;;;7.43;2.80;;;16.90;58.00;;;;;;5028738;28;20099;-60
2022/03/12 05:49:28;;;;;;;8.73;3.22;;;16.90;57.90;;;;;;5047958;28;20104;-60
2022/03/12 05:51:55;;;;;;;8.05;3.00;;;16.90;57.90;;;;;;5034904;28;20147;-60
2022/03/12 05:54:21;;;;;;;8.00;3.20;;;16.90;58.00;;;;;;5026863;28;20029;-60
2022/03/12 05:56:47;;;;;;;6.55;2.75;;;16.90;58.00;;;;;;5021092;28;20025;-60
2022/03/12 05:59:13;;;;;;;9.05;3.35;;;16.80;58.00;;;;;;5028832;28;20056;-61
2022/03/12 06:01:39;;;;;;;6.90;2.85;;;16.80;57.90;;;;;;5028906;28;20471;-60
2022/03/12 06:04:05;;;;;;;8.02;3.25;;;16.80;57.90;;;;;;5029057;28;20037;-60
2022/03/12 06:06:35;;;;;;;6.65;2.97;;;16.80;58.00;;;;;;5022391;28;20593;-60
2022/03/12 06:09:07;;;;;;;7.45;2.90;;;16.80;58.00;;;;;;5018530;28;20018;-60
2022/03/12 06:11:37;;;;;;;7.15;3.00;;;16.80;58.00;;;;;;5015240;28;20033;-60
2022/03/12 06:14:03;;;;;;;7.68;2.80;;;16.80;58.10;;;;;;5022883;28;20017;-60
2022/03/12 06:16:29;;;;;;;7.35;3.00;;;16.80;58.00;;;;;;5026818;28;20082;-60
2022/03/12 06:18:54;;;;;;;7.15;2.70;;;16.80;58.10;;;;;;5032675;28;20364;-60
2022/03/12 06:21:20;;;;;;;7.75;2.67;;;16.80;58.00;;;;;;5035222;28;20104;-60
2022/03/12 06:23:47;;;;;;;6.35;2.65;;;16.80;58.00;;;;;;5028455;28;20175;-60
2022/03/12 06:26:14;;;;;;;6.60;2.83;;;16.80;58.20;;;;;;5011719;28;20048;-60
2022/03/12 06:28:41;;;;;;;6.47;2.60;;;16.70;58.00;;;;;;5025323;28;20022;-60
2022/03/12 06:31:08;;;;;;;6.25;2.80;;;16.70;58.00;;;;;;5023225;28;20025;-60
2022/03/12 06:33:34;;;;;;;6.93;2.80;;;16.70;57.90;;;;;;5021659;28;20076;-60
2022/03/12 06:36:02;;;;;;;7.28;2.60;;;16.70;58.00;;;;;;5017019;28;20054;-60
2022/03/12 06:38:28;;;;;;;5.88;2.42;;;16.70;58.10;;;;;;5011575;28;20565;-60
2022/03/12 06:40:58;;;;;;;6.00;2.75;;;16.70;58.20;;;;;;5023786;28;20045;-60
2022/03/12 06:43:28;;;;;;;6.15;2.50;;;16.70;58.20;;;;;;5014103;28;20034;-60
2022/03/12 06:45:54;;;;;;;6.80;2.63;;;16.70;58.20;;;;;;5025679;28;20029;-60
2022/03/12 06:48:20;;;;;;;5.32;2.40;;;16.70;58.30;;;;;;5021302;28;20085;-60
2022/03/12 06:50:46;;;;;;;6.65;2.60;;;16.60;58.40;;;;;;5016812;28;20034;-60
2022/03/12 06:53:13;;;;;;;6.82;2.67;;;16.60;58.30;;;;;;5012507;28;20029;-61
2022/03/12 06:55:38;;;;;;;7.28;2.65;;;16.60;58.30;;;;;;5013776;28;20064;-60
2022/03/12 06:58:04;;;;;;;7.05;2.35;;;16.60;58.50;;;;;;5028167;28;20057;-60
2022/03/12 07:00:31;;;;;;;7.05;2.63;;;16.60;58.40;;;;;;5032017;28;20032;-60
2022/03/12 07:02:57;;;;;;;5.85;2.50;;;16.60;58.50;;;;;;5033876;28;20028;-60
2022/03/12 07:05:23;;;;;;;7.82;2.40;;;16.60;58.50;;;;;;5012324;28;20053;-60
2022/03/12 07:07:49;;;;;;;5.22;2.45;;;16.60;58.50;;;;;;5012458;28;20406;-60
2022/03/12 07:10:15;;;;;;;6.63;2.50;;;16.60;58.50;;;;;;5028423;28;20474;-60
2022/03/12 07:12:44;;;;;;;5.53;2.30;;;16.60;58.50;;;;;;5026806;28;20017;-60
2022/03/12 07:15:13;;;;;;;6.15;2.20;;;16.60;58.60;;;;;;5026364;28;20030;-60
2022/03/12 07:17:40;;;;;;;6.25;2.53;;;16.50;58.60;;;;;;5026911;28;20032;-60
2022/03/12 07:20:07;;;;;;;6.28;2.40;;;16.50;58.60;;;;;;5015010;28;20041;-60
2022/03/12 07:22:32;;;;;;;5.78;2.30;;;16.50;58.70;;;;;;5012218;28;20033;-61
2022/03/12 07:24:58;;;;;;;5.45;2.33;;;16.50;58.60;;;;;;5019769;28;20088;-60
2022/03/12 07:27:25;;;;;;;8.38;2.38;;;16.50;58.70;;;;;;5022697;28;20039;-60
2022/03/12 07:29:51;;;;;;;7.25;2.70;;;16.50;58.60;;;;;;5015541;28;20033;-60
2022/03/12 07:32:17;;;;;;;7.72;2.22;;;16.50;58.60;;;;;;5016804;28;20446;-60
2022/03/12 07:34:43;;;;;;;5.60;2.22;;;16.50;58.90;;;;;;5030858;28;20033;-60
2022/03/12 07:37:11;;;;;;;8.55;2.70;;;16.50;59.40;;;;;;5026819;28;20398;-60
2022/03/12 07:39:40;;;;;;;6.50;2.30;;;16.50;59.50;;;;;;5029187;28;20482;-61
2022/03/12 07:42:06;;;;;;;7.75;2.22;;;16.60;60.20;;;;;;5027563;28;20060;-61
2022/03/12 07:44:32;;;;;;;7.55;2.42;;;16.60;60.00;;;;;;5030471;28;20064;-61
2022/03/12 07:46:59;;;;;;;5.85;2.10;;;16.60;59.90;;;;;;5031350;28;20067;-61
2022/03/12 07:49:25;;;;;;;7.38;2.40;;;16.60;59.80;;;;;;5025155;28;20021;-62
2022/03/12 07:51:52;;;;;;;8.57;2.58;;;16.60;60.50;;;;;;5029263;28;20032;-62
2022/03/12 07:54:18;;;;;;;7.72;2.80;;;16.60;62.00;;;;;;5030589;28;20032;-62
2022/03/12 07:56:44;;;;;;;6.35;2.28;;;16.70;62.70;;;;;;5026294;28;20025;-62
2022/03/12 07:59:10;;;;;;;7.15;2.58;;;16.80;62.50;;;;;;5029054;28;20032;-62
2022/03/12 08:01:37;;;;;;;9.23;2.90;;;16.80;62.60;;;;;;5031931;28;20037;-62
2022/03/12 08:04:05;;;;;;;7.97;2.85;;;16.80;62.60;;;;;;5020421;28;20101;-62
2022/03/12 08:06:31;;;;;;;8.02;2.50;;;16.80;62.50;;;;;;5019153;28;20034;-62
2022/03/12 08:08:57;;;;;;;8.68;2.60;;;16.80;62.30;;;;;;5019509;28;20028;-62
2022/03/12 08:11:25;;;;;;;8.18;2.75;;;16.80;62.20;;;;;;5016351;28;20030;-60
2022/03/12 08:13:54;;;;;;;5.85;2.33;;;16.80;62.10;;;;;;5013766;28;20042;-61
2022/03/12 08:16:19;;;;;;;8.73;2.10;;;16.80;62.10;;;;;;5023006;28;20032;-61
2022/03/12 08:18:45;;;;;;;7.10;2.30;;;16.80;62.00;;;;;;5025854;28;20017;-61
2022/03/12 08:21:11;;;;;;;6.95;2.13;;;16.80;61.60;;;;;;5026651;28;20279;-61
2022/03/12 08:23:37;;;;;;;8.25;2.65;;;16.70;61.50;;;;;;5018109;28;20033;-61
2022/03/12 08:26:03;;;;;;;7.50;2.30;;;16.80;61.50;;;;;;5026558;28;20038;-61
2022/03/12 08:28:29;;;;;;;6.45;2.35;;;16.70;61.40;;;;;;5017911;28;20021;-61
2022/03/12 08:30:54;;;;;;;9.90;2.40;;;16.80;61.30;;;;;;5019178;28;20034;-61
2022/03/12 08:33:20;;;;;;;8.10;2.28;;;16.70;61.20;;;;;;5022918;28;20564;-61
2022/03/12 08:35:47;;;;;;;8.70;2.13;;;16.70;61.10;;;;;;5029934;28;20038;-61
2022/03/12 08:38:13;;;;;;;7.40;2.47;;;16.80;61.20;;;;;;5028106;28;20048;-61
2022/03/12 08:40:38;;;;;;;6.40;2.25;;;16.80;61.20;;;;;;5016114;28;20529;-61
2022/03/12 08:43:04;;;;;;;8.93;2.65;;;16.70;61.00;;;;;;5028125;28;20022;-61
2022/03/12 08:45:30;;;;;;;7.32;2.15;;;16.70;61.10;;;;;;5024355;28;20048;-61
2022/03/12 08:47:56;;;;;;;6.72;2.60;;;16.80;61.10;;;;;;5026604;28;20022;-61
2022/03/12 08:50:23;;;;;;;7.90;2.10;;;16.80;61.00;;;;;;5022645;28;20039;-61
2022/03/12 08:52:49;;;;;;;7.75;2.35;;;16.80;62.00;;;;;;5014635;28;20021;-61
2022/03/12 08:55:14;;;;;;;7.55;2.15;;;16.80;61.00;;;;;;5018897;28;20037;-61
2022/03/12 08:57:40;;;;;;;7.35;2.30;;;16.80;60.90;;;;;;5024464;28;20037;-61
2022/03/12 09:00:07;;;;;;;7.10;1.83;;;16.80;60.80;;;;;;5051825;28;20102;-61
2022/03/12 09:02:34;;;;;;;6.53;2.00;;;16.80;60.70;;;;;;5029191;28;20022;-61
2022/03/12 09:05:00;;;;;;;7.32;2.03;;;16.80;60.80;;;;;;5018003;28;20026;-61
2022/03/12 09:07:26;;;;;;;7.82;2.13;;;16.80;60.80;;;;;;5030010;28;20080;-61
2022/03/12 09:09:54;;;;;;;6.93;2.10;;;16.80;60.70;;;;;;5052487;28;20057;-61
2022/03/12 09:12:19;;;;;;;8.23;2.10;;;16.80;60.70;;;;;;5017661;28;20502;-61
2022/03/12 09:14:45;;;;;;;7.50;2.20;;;16.80;60.70;;;;;;5018157;28;20026;-61
2022/03/12 09:17:11;;;;;;;7.00;2.20;;;16.80;60.70;;;;;;5028756;28;20783;-61
2022/03/12 09:19:36;;;;;;;6.88;2.13;;;16.80;60.70;;;;;;5033062;28;20037;-61
2022/03/12 09:22:03;;;;;;;6.18;1.90;;;16.80;60.60;;;;;;5028240;28;20374;-61
2022/03/12 09:24:28;;;;;;;6.47;1.88;;;16.90;60.60;;;;;;5028960;28;20026;-61
2022/03/12 09:26:54;;;;;;;5.00;1.80;;;16.90;61.40;;;;;;5020802;28;20516;-61
2022/03/12 09:29:20;;;;;;;6.00;2.17;;;16.90;62.20;;;;;;5013999;28;20053;-60
2022/03/12 09:31:46;;;;;;;5.28;1.80;;;16.90;62.00;;;;;;5022755;28;20044;-61
2022/03/12 09:34:12;;;;;;;6.57;2.00;;;16.90;62.20;;;;;;5042992;28;20040;-60
2022/03/12 09:36:38;;;;;;;5.75;1.80;;;16.90;62.00;;;;;;5028871;28;20111;-60
2022/03/12 09:39:06;;;;;;;5.68;1.80;;;17.00;62.00;;;;;;5026846;28;20083;-61
2022/03/12 09:41:38;;;;;;;5.68;1.65;;;17.00;62.00;;;;;;5015676;28;20411;-60
2022/03/12 09:44:06;;;;;;;5.72;1.85;;;17.00;62.00;;;;;;5013159;28;20061;-61
2022/03/12 09:46:32;;;;;;;4.55;1.80;;;17.10;61.90;;;;;;5054636;28;20068;-60
2022/03/12 09:48:58;;;;;;;5.00;2.05;;;17.10;61.80;;;;;;5022304;28;20046;-61
2022/03/12 09:51:28;;;;;;;7.00;1.85;;;17.20;61.80;;;;;;5030733;28;20034;-60
2022/03/12 09:53:57;;;;;;;6.93;1.90;;;17.20;61.80;;;;;;5037405;28;20014;-61
2022/03/12 09:56:23;;;;;;;5.78;1.83;;;17.20;61.70;;;;;;5028865;28;20075;-60
2022/03/12 09:58:49;;;;;;;5.10;1.63;;;17.20;61.70;;;;;;5012922;28;20465;-60
2022/03/12 10:01:15;;;;;;;4.20;1.70;;;17.20;61.60;;;;;;5024383;28;20059;-61
2022/03/12 10:03:42;;;;;;;4.97;1.90;;;17.30;61.50;;;;;;5028158;28;20100;-60
2022/03/12 10:06:08;;;;;;;3.75;1.60;;;17.30;61.40;;;;;;5034554;28;20048;-60
2022/03/12 10:08:34;;;;;;;5.03;1.80;;;17.30;61.30;;;;;;5035348;28;20482;-61
2022/03/12 10:11:00;;;;;;;6.38;2.17;;;17.40;61.30;;;;;;5012884;28;20034;-61
2022/03/12 10:13:26;;;;;;;5.13;1.90;;;17.40;61.20;;;;;;5028948;28;20602;-60
2022/03/12 10:15:51;;;;;;;5.78;2.05;;;17.40;61.10;;;;;;5029551;28;20141;-60
2022/03/12 10:18:17;;;;;;;5.70;1.73;;;17.40;61.10;;;;;;5023867;28;20037;-61
2022/03/12 10:20:43;;;;;;;6.72;1.88;;;17.40;61.00;;;;;;5017284;28;20056;-61
2022/03/12 10:23:10;;;;;;;5.80;1.70;;;17.50;61.00;;;;;;5028490;28;20022;-60
2022/03/12 10:25:36;;;;;;;5.75;1.80;;;17.50;61.00;;;;;;5015727;28;20279;-60
2022/03/12 10:28:02;;;;;;;5.82;1.90;;;17.50;61.00;;;;;;5017800;28;20376;-61
2022/03/12 10:30:29;;;;;;;6.00;1.92;;;17.50;60.90;;;;;;5020857;28;20091;-61
2022/03/12 10:32:55;;;;;;;6.43;1.92;;;17.50;60.80;;;;;;5026205;28;20018;-61
2022/03/12 10:35:21;;;;;;;9.27;1.70;;;17.50;60.80;;;;;;5022717;28;20025;-61
2022/03/12 10:37:48;;;;;;;5.38;1.70;;;17.60;60.70;;;;;;5013005;28;20061;-60
2022/03/12 10:40:16;;;;;;;5.53;1.70;;;17.60;60.60;;;;;;5027350;28;20049;-61
2022/03/12 10:43:04;;;;;;;6.53;2.20;;;17.60;60.40;;;;;;5020544;28;20056;-60
2022/03/12 10:45:39;;;;;;;6.03;1.60;;;17.70;60.20;;;;;;5016006;28;20067;-61
2022/03/12 10:48:05;;;;;;;5.20;1.58;;;17.70;60.20;;;;;;5016387;28;20505;-61
2022/03/12 10:50:39;;;;;;;6.95;1.80;;;17.70;60.10;;;;;;5014839;28;20033;-60
2022/03/12 10:53:06;;;;;;;7.10;2.40;;;17.70;60.10;;;;;;5008920;28;20029;-61
2022/03/12 10:55:36;;;;;;;6.93;1.90;;;17.70;60.20;;;;;;5014997;28;20022;-60
2022/03/12 10:58:08;;;;;;;5.43;1.77;;;17.70;60.10;;;;;;5015599;28;20068;-61
2022/03/12 11:00:41;;;;;;;6.45;1.67;;;17.70;60.00;;;;;;5022049;28;20510;-60
2022/03/12 11:03:12;;;;;;;6.60;1.67;;;17.80;61.10;;;;;;5026656;28;20116;-60
2022/03/12 11:05:38;;;;;;;5.05;1.60;;;17.80;59.90;;;;;;5026706;28;20044;-60
2022/03/12 11:08:16;;;;;;;7.10;1.77;;;17.80;59.70;;;;;;5012046;28;20040;-61
2022/03/12 11:10:51;;;;;;;5.95;1.90;;;17.80;59.70;;;;;;5026807;28;21339;-60
2022/03/12 11:13:27;;;;;;;4.35;1.40;;;17.90;59.70;;;;;;5028755;28;20406;-61
2022/03/12 11:16:12;;;;;;;5.82;1.60;;;17.80;59.50;;;;;;5019490;28;20048;-61
2022/03/12 11:18:42;;;;;;;6.18;1.70;;;17.90;59.50;;;;;;5020314;28;20405;-60
2022/03/12 11:21:08;;;;;;;6.05;2.10;;;17.90;59.50;;;;;;5021357;28;20398;-61
2022/03/12 11:23:34;;;;;;;4.35;1.52;;;17.90;59.40;;;;;;5032332;28;20098;-61
2022/03/12 11:26:06;;;;;;;6.88;2.00;;;17.90;59.40;;;;;;5035310;28;20052;-60
2022/03/12 11:28:32;;;;;;;5.68;2.03;;;17.90;59.40;;;;;;5035139;28;20589;-61
2022/03/12 11:30:58;;;;;;;4.07;1.60;;;17.90;59.20;;;;;;5024920;28;20022;-61
2022/03/12 11:33:25;;;;;;;5.80;1.58;;;17.90;59.20;;;;;;5030795;28;20048;-61
2022/03/12 11:35:58;;;;;;;4.32;1.50;;;18.00;59.10;;;;;;5031586;28;20596;-61
2022/03/12 11:38:24;;;;;;;5.95;1.52;;;18.00;59.00;;;;;;5031422;28;20110;-61
2022/03/12 11:40:51;;;;;;;5.13;1.80;;;18.00;59.00;;;;;;5029700;28;20442;-61
2022/03/12 11:43:21;;;;;;;6.13;1.65;;;18.00;58.90;;;;;;5031129;28;20082;-61
2022/03/12 11:45:47;;;;;;;7.50;1.67;;;18.00;58.70;;;;;;5033438;28;20045;-60
2022/03/12 11:48:13;;;;;;;5.35;1.65;;;18.00;59.00;;;;;;5029521;28;20102;-61
2022/03/12 11:50:39;;;;;;;7.35;1.85;;;18.00;58.80;;;;;;5030429;28;20509;-61
2022/03/12 11:53:06;;;;;;;9.38;1.65;;;18.00;58.70;;;;;;5018906;28;20116;-59
2022/03/12 11:55:32;;;;;;;4.70;1.60;;;18.10;58.50;;;;;;5034225;28;20022;-59
2022/03/12 11:58:00;;;;;;;8.95;1.95;;;18.10;58.50;;;;;;5022918;28;20017;-59
2022/03/12 12:00:28;;;;;;;7.45;1.83;;;18.20;58.30;;;;;;5021299;28;20037;-59
2022/03/12 12:02:54;;;;;;;7.80;1.70;;;18.30;58.40;;;;;;5024728;28;20052;-60
2022/03/12 12:05:22;;;;;;;7.25;2.10;;;18.30;58.50;;;;;;5030117;28;20041;-60
2022/03/12 12:07:51;;;;;;;7.25;1.75;;;18.30;58.40;;;;;;5029523;28;20037;-60
2022/03/12 12:10:20;;;;;;;5.75;1.60;;;18.40;58.50;;;;;;5027481;28;20041;-60
2022/03/12 12:12:51;;;;;;;8.25;1.60;;;18.40;58.40;;;;;;5022495;28;20048;-60
2022/03/12 12:15:22;;;;;;;8.73;1.90;;;18.40;58.30;;;;;;5018996;28;20036;-60
2022/03/12 12:17:48;;;;;;;7.70;1.55;;;18.40;58.40;;;;;;5017749;28;20471;-60
2022/03/12 12:20:15;;;;;;;9.10;1.90;;;18.50;58.40;;;;;;5038428;28;20031;-60
2022/03/12 12:22:41;;;;;;;8.55;1.67;;;18.50;58.40;;;;;;5025969;28;20111;-60
2022/03/12 12:25:09;;;;;;;8.27;1.90;;;18.50;58.30;;;;;;5027783;28;20048;-60
2022/03/12 12:27:45;;;;;;;13.18;2.08;;;18.60;58.30;;;;;;5026392;28;20033;-60
2022/03/12 12:30:20;;;;;;;8.98;1.65;;;18.60;58.30;;;;;;5032532;28;20584;-58
2022/03/12 12:32:48;;;;;;;8.83;1.83;;;18.60;58.30;;;;;;5023996;28;20029;-58
2022/03/12 12:35:23;;;;;;;10.63;2.47;;;18.70;58.50;;;;;;5015399;28;20028;-58
2022/03/12 12:37:58;;;;;;;12.95;2.50;;;18.70;58.50;;;;;;5017182;28;20047;-58
2022/03/12 12:40:44;;;;;;;14.68;2.40;;;18.70;58.50;;;;;;5031721;28;20052;-58
2022/03/12 12:43:12;;;;;;;11.23;2.28;;;18.70;58.40;;;;;;5016602;28;20018;-58